createdAt,value
2019-02-23T00:00:42.925Z,100.00
2019-02-23T00:03:50.361Z,100.00
2019-02-23T00:06:57.655Z,100.00
2019-02-23T00:10:06.085Z,100.00
2019-02-23T00:13:13.913Z,100.00
2019-02-23T00:16:21.957Z,100.00
2019-02-23T00:19:29.385Z,100.00
2019-02-23T00:22:36.667Z,100.00
2019-02-23T00:25:44.202Z,100.00
2019-02-23T00:28:51.636Z,100.00
2019-02-23T00:31:59.313Z,100.00
2019-02-23T00:35:06.694Z,100.00
2019-02-23T00:38:14.374Z,100.00
2019-02-23T00:41:21.673Z,100.00
2019-02-23T00:44:29.043Z,100.00
2019-02-23T00:47:36.590Z,100.00
2019-02-23T00:50:43.975Z,100.00
2019-02-23T00:53:51.143Z,100.00
2019-02-23T00:56:58.564Z,100.00
2019-02-23T01:00:08.400Z,100.00
2019-02-23T01:03:15.912Z,100.00
2019-02-23T01:06:23.512Z,100.00
2019-02-23T01:09:31.130Z,100.00
2019-02-23T01:12:38.794Z,100.00
2019-02-23T01:15:46.108Z,100.00
2019-02-23T01:18:53.367Z,100.00
2019-02-23T01:22:00.775Z,100.00
2019-02-23T01:25:08.859Z,100.00
2019-02-23T01:28:16.550Z,100.00
2019-02-23T01:31:23.730Z,100.00
2019-02-23T01:34:31.294Z,100.00
2019-02-23T01:37:38.780Z,100.00
2019-02-23T01:40:46.308Z,100.00
2019-02-23T01:43:53.584Z,100.00
2019-02-23T01:47:01.275Z,100.00
2019-02-23T01:50:08.545Z,100.00
2019-02-23T01:53:16.363Z,100.00
2019-02-23T01:56:23.974Z,100.00
2019-02-23T01:59:31.273Z,100.00
2019-02-23T02:02:47.645Z,100.00
2019-02-23T02:05:56.070Z,100.00
2019-02-23T02:09:04.274Z,100.00
2019-02-23T02:12:13.812Z,100.00
2019-02-23T02:15:20.958Z,100.00
2019-02-23T02:18:28.618Z,100.00
2019-02-23T02:21:36.434Z,100.00
2019-02-23T02:24:43.815Z,100.00
2019-02-23T02:27:51.105Z,100.00
2019-02-23T02:30:58.685Z,100.00
2019-02-23T02:34:08.612Z,100.00
2019-02-23T02:37:16.166Z,100.00
2019-02-23T02:40:23.522Z,100.00
2019-02-23T02:43:30.688Z,100.00
2019-02-23T02:46:38.513Z,100.00
2019-02-23T02:49:45.699Z,100.00
2019-02-23T02:52:53.104Z,100.00
2019-02-23T02:56:00.280Z,100.00
2019-02-23T02:59:07.442Z,100.00
2019-02-23T03:02:15.009Z,100.00
2019-02-23T03:05:22.742Z,100.00
2019-02-23T03:08:29.997Z,100.00
2019-02-23T03:11:37.732Z,100.00
2019-02-23T03:14:45.168Z,100.00
2019-02-23T03:17:52.653Z,100.00
2019-02-23T03:21:00.084Z,100.00
2019-02-23T03:24:08.046Z,100.00
2019-02-23T03:27:15.238Z,100.00
2019-02-23T03:30:22.710Z,100.00
2019-02-23T03:33:30.343Z,100.00
2019-02-23T03:36:37.593Z,100.00
2019-02-23T03:39:44.762Z,100.00
2019-02-23T03:42:52.227Z,100.00
2019-02-23T03:46:00.026Z,100.00
2019-02-23T03:49:07.461Z,100.00
2019-02-23T03:52:14.895Z,100.00
2019-02-23T03:55:22.072Z,99.99
2019-02-23T03:58:29.716Z,99.81
2019-02-23T04:01:37.152Z,99.93
2019-02-23T04:04:45.467Z,100.00
2019-02-23T04:07:52.626Z,100.00
2019-02-23T04:10:59.913Z,100.00
2019-02-23T04:14:07.380Z,100.00
2019-02-23T04:17:14.922Z,100.00
2019-02-23T04:20:22.363Z,100.00
2019-02-23T04:23:30.009Z,100.00
2019-02-23T04:26:37.168Z,100.00
2019-02-23T04:29:46.915Z,99.99
2019-02-23T04:32:53.803Z,99.91
2019-02-23T04:36:01.703Z,99.05
2019-02-23T04:39:09.073Z,98.91
2019-02-23T04:42:16.735Z,97.21
2019-02-23T04:45:24.107Z,97.04
2019-02-23T04:48:31.624Z,95.87
2019-02-23T04:51:38.775Z,96.17
2019-02-23T04:54:46.358Z,94.35
2019-02-23T04:57:53.757Z,93.18
2019-02-23T05:01:01.122Z,91.39
2019-02-23T05:04:08.530Z,91.27
2019-02-23T05:07:15.786Z,91.76
2019-02-23T05:10:23.142Z,91.25
2019-02-23T05:13:30.664Z,90.62
2019-02-23T05:16:37.859Z,90.08
2019-02-23T05:19:45.298Z,89.25
2019-02-23T05:22:52.568Z,88.21
2019-02-23T05:25:59.733Z,85.78
2019-02-23T05:29:07.957Z,85.70
2019-02-23T05:32:15.983Z,85.99
2019-02-23T05:35:23.954Z,86.33
2019-02-23T05:38:31.814Z,85.76
2019-02-23T05:41:39.507Z,87.76
2019-02-23T05:44:46.867Z,88.58
2019-02-23T05:47:56.855Z,89.00
2019-02-23T05:51:04.555Z,88.37
2019-02-23T05:54:12.202Z,87.85
2019-02-23T05:57:20.397Z,88.94
2019-02-23T06:00:28.044Z,89.41
2019-02-23T06:03:35.196Z,89.58
2019-02-23T06:06:42.453Z,89.95
2019-02-23T06:09:49.694Z,89.09
2019-02-23T06:12:57.406Z,88.50
2019-02-23T06:16:05.149Z,89.11
2019-02-23T06:19:12.662Z,89.30
2019-02-23T06:22:20.154Z,89.67
2019-02-23T06:25:27.421Z,89.77
2019-02-23T06:28:34.949Z,88.64
2019-02-23T06:31:42.213Z,88.71
2019-02-23T06:34:50.236Z,88.80
2019-02-23T06:37:57.972Z,87.70
2019-02-23T06:41:05.491Z,87.27
2019-02-23T06:44:12.741Z,86.66
2019-02-23T06:47:19.996Z,87.28
2019-02-23T06:50:27.489Z,85.44
2019-02-23T06:53:34.988Z,85.29
2019-02-23T06:56:42.723Z,84.92
2019-02-23T06:59:50.083Z,83.71
2019-02-23T07:02:57.603Z,82.63
2019-02-23T07:06:04.791Z,80.71
2019-02-23T07:09:12.060Z,80.23
2019-02-23T07:12:19.652Z,79.32
2019-02-23T07:15:27.615Z,78.03
2019-02-23T07:18:34.773Z,77.09
2019-02-23T07:21:42.241Z,76.22
2019-02-23T07:24:49.868Z,75.30
2019-02-23T07:27:57.750Z,71.83
2019-02-23T07:31:07.497Z,71.75
2019-02-23T07:34:15.226Z,71.75
2019-02-23T07:37:23.074Z,73.86
2019-02-23T07:40:30.361Z,72.86
2019-02-23T07:43:38.097Z,72.95
2019-02-23T07:46:45.512Z,71.60
2019-02-23T07:49:52.680Z,71.72
2019-02-23T07:53:00.203Z,69.48
2019-02-23T07:56:07.757Z,69.03
2019-02-23T07:59:16.086Z,68.60
2019-02-23T08:02:25.777Z,68.54
2019-02-23T08:05:33.158Z,68.59
2019-02-23T08:08:40.416Z,68.77
2019-02-23T08:11:47.679Z,68.70
2019-02-23T08:14:55.078Z,66.70
2019-02-23T08:18:03.133Z,66.47
2019-02-23T08:21:10.749Z,65.24
2019-02-23T08:24:18.102Z,64.75
2019-02-23T08:27:25.440Z,66.80
2019-02-23T08:30:32.847Z,65.92
2019-02-23T08:33:40.238Z,65.92
2019-02-23T08:36:48.041Z,66.42
2019-02-23T08:39:55.644Z,65.97
2019-02-23T08:43:03.099Z,66.94
2019-02-23T08:46:10.565Z,66.82
2019-02-23T08:49:18.082Z,66.62
2019-02-23T08:52:32.368Z,66.39
2019-02-23T08:55:40.180Z,66.21
2019-02-23T08:58:47.582Z,66.40
2019-02-23T09:01:55.137Z,66.27
2019-02-23T09:08:11.950Z,67.32
2019-02-23T09:11:19.462Z,66.72
2019-02-23T09:14:27.352Z,67.49
2019-02-23T09:17:35.343Z,67.89
2019-02-23T09:20:42.782Z,66.77
2019-02-23T09:23:50.877Z,67.65
2019-02-23T09:26:58.340Z,66.57
2019-02-23T09:30:07.754Z,66.36
2019-02-23T09:33:15.853Z,66.35
2019-02-23T09:36:24.047Z,63.24
2019-02-23T09:39:32.197Z,64.31
2019-02-23T09:42:40.016Z,64.40
2019-02-23T09:45:47.519Z,65.35
2019-02-23T09:48:56.385Z,65.77
2019-02-23T09:52:04.251Z,64.10
2019-02-23T09:55:12.228Z,64.11
2019-02-23T09:58:20.420Z,61.68
2019-02-23T10:01:27.785Z,60.60
2019-02-23T10:04:35.532Z,60.20
2019-02-23T10:07:42.708Z,59.93
2019-02-23T10:10:50.225Z,58.36
2019-02-23T10:13:57.847Z,58.98
2019-02-23T10:17:05.715Z,56.37
2019-02-23T10:20:13.369Z,54.75
2019-02-23T10:23:22.239Z,52.47
2019-02-23T10:26:30.864Z,51.50
2019-02-23T10:29:38.638Z,52.72
2019-02-23T10:32:46.203Z,53.90
2019-02-23T10:35:53.813Z,51.24
2019-02-23T10:39:02.283Z,51.52
2019-02-23T10:42:09.559Z,50.82
2019-02-23T10:45:17.106Z,48.49
2019-02-23T10:48:24.576Z,48.01
2019-02-23T10:51:32.479Z,46.50
2019-02-23T10:54:40.021Z,46.81
2019-02-23T10:57:48.246Z,46.62
2019-02-23T11:00:56.061Z,47.30
2019-02-23T11:04:03.483Z,47.40
2019-02-23T11:07:11.391Z,48.03
2019-02-23T11:10:19.299Z,48.44
2019-02-23T11:13:27.105Z,48.36
2019-02-23T11:16:35.123Z,50.53
2019-02-23T11:19:42.287Z,49.70
2019-02-23T11:22:49.793Z,50.55
2019-02-23T11:25:57.419Z,49.66
2019-02-23T11:29:07.965Z,50.18
2019-02-23T11:32:15.898Z,52.29
2019-02-23T11:35:23.694Z,53.97
2019-02-23T11:38:31.730Z,53.67
2019-02-23T11:41:39.254Z,53.06
2019-02-23T11:44:47.427Z,53.23
2019-02-23T11:47:54.965Z,53.95
2019-02-23T11:51:02.885Z,53.60
2019-02-23T11:54:10.437Z,51.00
2019-02-23T11:57:18.397Z,50.24
2019-02-23T12:00:26.023Z,50.37
2019-02-23T12:03:33.877Z,49.01
2019-02-23T12:06:41.413Z,47.54
2019-02-23T12:09:49.210Z,48.60
2019-02-23T12:12:57.635Z,49.63
2019-02-23T12:16:05.538Z,49.20
2019-02-23T12:19:12.829Z,49.15
2019-02-23T12:22:20.950Z,51.00
2019-02-23T12:25:28.654Z,51.26
2019-02-23T12:28:36.317Z,51.38
2019-02-23T12:31:44.083Z,50.89
2019-02-23T12:34:51.936Z,51.63
2019-02-23T12:37:59.291Z,52.39
2019-02-23T12:41:11.578Z,51.39
2019-02-23T12:44:18.880Z,50.67
2019-02-23T12:47:26.532Z,51.00
2019-02-23T12:50:33.936Z,49.88
2019-02-23T12:53:41.369Z,49.52
2019-02-23T12:56:48.783Z,50.66
2019-02-23T12:59:56.208Z,52.66
2019-02-23T13:03:03.932Z,51.82
2019-02-23T13:06:11.705Z,50.98
2019-02-23T13:09:28.697Z,51.93
2019-02-23T13:13:29.165Z,53.79
2019-02-23T13:17:28.365Z,52.64
2019-02-23T13:21:22.943Z,52.47
2019-02-23T13:24:55.142Z,52.99
2019-02-23T13:29:08.010Z,53.01
2019-02-23T13:32:53.214Z,53.06
2019-02-23T13:37:01.832Z,52.46
2019-02-23T13:40:53.476Z,51.16
2019-02-23T13:44:23.199Z,49.73
2019-02-23T13:48:41.184Z,50.87
2019-02-23T13:53:01.132Z,50.51
2019-02-23T13:57:06.367Z,49.92
2019-02-23T14:00:57.158Z,51.36
2019-02-23T14:05:08.981Z,53.02
2019-02-23T14:09:15.983Z,54.20
2019-02-23T14:13:27.064Z,53.25
2019-02-23T14:17:20.593Z,53.10
2019-02-23T14:21:38.139Z,53.95
2019-02-23T14:26:09.792Z,53.05
2019-02-23T14:29:46.633Z,52.04
2019-02-23T14:33:25.650Z,51.41
2019-02-23T14:37:05.583Z,51.81
2019-02-23T14:41:07.522Z,51.13
2019-02-23T14:44:49.533Z,51.13
2019-02-23T14:49:01.500Z,52.22
2019-02-23T14:53:03.340Z,51.50
2019-02-23T14:56:25.485Z,49.29
2019-02-23T15:00:10.813Z,49.57
2019-02-23T15:04:28.197Z,49.09
2019-02-23T15:08:31.127Z,47.33
2019-02-23T15:12:30.242Z,49.31
2019-02-23T15:16:19.362Z,49.57
2019-02-23T15:20:07.675Z,50.75
2019-02-23T15:24:14.424Z,49.97
2019-02-23T15:28:01.081Z,49.55
2019-02-23T15:31:45.688Z,50.50
2019-02-23T15:35:20.979Z,50.34
2019-02-23T15:40:03.754Z,50.09
2019-02-23T15:44:02.889Z,49.46
2019-02-23T15:50:26.334Z,50.15
2019-02-23T15:53:33.666Z,49.37
2019-02-23T15:56:42.936Z,49.96
2019-02-23T15:59:50.575Z,50.22
2019-02-23T16:02:58.288Z,48.97
2019-02-23T16:06:06.162Z,49.80
2019-02-23T16:09:14.891Z,50.38
2019-02-23T16:12:23.024Z,51.49
2019-02-23T16:15:30.400Z,51.56
2019-02-23T16:21:54.101Z,52.03
2019-02-23T16:25:02.074Z,52.31
2019-02-23T16:28:11.284Z,53.97
2019-02-23T16:31:19.011Z,53.76
2019-02-23T16:34:26.313Z,54.22
2019-02-23T16:37:33.929Z,54.86
2019-02-23T16:40:41.113Z,55.43
2019-02-23T16:43:48.689Z,56.57
2019-02-23T16:46:56.516Z,57.68
2019-02-23T16:50:04.708Z,55.78
2019-02-23T16:53:12.227Z,55.18
2019-02-23T16:56:19.772Z,53.55
2019-02-23T16:59:27.410Z,53.65
2019-02-23T17:02:36.060Z,53.47
2019-02-23T17:05:44.103Z,53.50
2019-02-23T17:08:52.452Z,53.16
2019-02-23T17:12:01.865Z,53.82
2019-02-23T17:15:10.631Z,53.95
2019-02-23T17:18:18.726Z,52.70
2019-02-23T17:21:26.647Z,52.78
2019-02-23T17:24:35.147Z,53.23
2019-02-23T17:27:42.941Z,52.55
2019-02-23T17:30:51.312Z,52.61
2019-02-23T17:33:58.672Z,52.46
2019-02-23T17:37:06.657Z,52.82
2019-02-23T17:40:14.778Z,51.77
2019-02-23T17:43:22.787Z,52.10
2019-02-23T17:46:31.707Z,53.14
2019-02-23T17:49:39.901Z,52.11
2019-02-23T17:52:47.787Z,52.01
2019-02-23T17:55:55.798Z,53.05
2019-02-23T17:59:03.142Z,52.19
2019-02-23T18:02:10.735Z,51.85
2019-02-23T18:05:18.734Z,52.17
2019-02-23T18:08:26.548Z,52.09
2019-02-23T18:11:34.157Z,50.81
2019-02-23T18:14:42.267Z,51.67
2019-02-23T18:17:50.120Z,51.40
2019-02-23T18:20:57.650Z,52.45
2019-02-23T18:24:06.542Z,51.88
2019-02-23T18:27:14.807Z,52.10
2019-02-23T18:30:22.451Z,53.83
2019-02-23T18:33:30.299Z,54.18
2019-02-23T18:36:38.919Z,54.55
2019-02-23T18:39:47.238Z,53.06
2019-02-23T18:42:55.182Z,53.83
2019-02-23T18:46:02.939Z,54.41
2019-02-23T18:49:11.387Z,53.24
2019-02-23T18:52:18.979Z,53.77
2019-02-23T18:55:26.750Z,54.19
2019-02-23T18:58:35.045Z,53.46
2019-02-23T19:01:42.986Z,55.37
2019-02-23T19:04:53.225Z,54.43
2019-02-23T19:08:01.347Z,54.91
2019-02-23T19:11:09.502Z,55.30
2019-02-23T19:14:17.221Z,55.21
2019-02-23T19:17:24.709Z,54.95
2019-02-23T19:20:32.570Z,54.98
2019-02-23T19:23:40.368Z,56.17
2019-02-23T19:26:48.231Z,54.73
2019-02-23T19:29:55.825Z,55.52
2019-02-23T19:33:03.327Z,55.39
2019-02-23T19:36:10.695Z,54.99
2019-02-23T19:39:18.495Z,53.73
2019-02-23T19:42:25.848Z,53.45
2019-02-23T19:45:33.535Z,55.10
2019-02-23T19:48:41.465Z,53.75
2019-02-23T19:51:48.952Z,53.01
2019-02-23T19:54:56.556Z,54.27
2019-02-23T19:58:04.359Z,53.21
2019-02-23T20:01:11.690Z,53.97
2019-02-23T20:04:19.131Z,55.16
2019-02-23T20:07:27.268Z,56.23
2019-02-23T20:10:34.672Z,55.57
2019-02-23T20:13:43.691Z,56.06
2019-02-23T20:16:51.377Z,56.31
2019-02-23T20:19:59.759Z,55.45
2019-02-23T20:23:07.835Z,56.34
2019-02-23T20:26:16.543Z,56.06
2019-02-23T20:29:24.743Z,56.77
2019-02-23T20:32:32.667Z,56.59
2019-02-23T20:35:40.636Z,56.10
2019-02-23T20:38:48.460Z,56.97
2019-02-23T20:41:55.868Z,56.03
2019-02-23T20:45:03.520Z,56.30
2019-02-23T20:48:10.875Z,55.30
2019-02-23T20:51:18.592Z,55.38
2019-02-23T20:54:26.046Z,56.07
2019-02-23T20:57:33.378Z,57.89
2019-02-23T21:00:40.753Z,58.62
2019-02-23T21:03:48.351Z,59.57
2019-02-23T21:06:55.623Z,59.41
2019-02-23T21:10:04.203Z,60.43
2019-02-23T21:13:11.976Z,60.06
2019-02-23T21:16:19.478Z,61.12
2019-02-23T21:19:27.762Z,60.02
2019-02-23T21:22:35.803Z,60.77
2019-02-23T21:25:43.828Z,61.57
2019-02-23T21:28:51.922Z,60.68
2019-02-23T21:32:00.334Z,61.43
2019-02-23T21:35:09.704Z,62.92
2019-02-23T21:38:17.395Z,63.02
2019-02-23T21:41:25.265Z,62.20
2019-02-23T21:44:32.981Z,62.26
2019-02-23T21:47:40.686Z,62.85
2019-02-23T21:50:48.742Z,61.95
2019-02-23T21:53:56.639Z,61.52
2019-02-23T21:57:04.585Z,61.02
2019-02-23T22:00:12.047Z,61.91
2019-02-23T22:03:19.520Z,62.39
2019-02-23T22:06:27.806Z,63.85
2019-02-23T22:09:36.745Z,62.97
2019-02-23T22:12:44.513Z,62.30
2019-02-23T22:15:51.911Z,63.97
2019-02-23T22:18:59.531Z,63.48
2019-02-23T22:22:07.313Z,62.57
2019-02-23T22:25:14.745Z,62.38
2019-02-23T22:28:21.995Z,63.36
2019-02-23T22:31:29.605Z,61.88
2019-02-23T22:34:37.139Z,62.74
2019-02-23T22:37:44.545Z,61.93
2019-02-23T22:40:51.993Z,61.56
2019-02-23T22:43:59.424Z,62.22
2019-02-23T22:47:07.119Z,61.73
2019-02-23T22:50:14.474Z,63.05
2019-02-23T22:53:21.683Z,62.94
2019-02-23T22:56:28.932Z,62.64
2019-02-23T22:59:36.377Z,65.14
2019-02-23T23:02:43.867Z,64.97
2019-02-23T23:05:51.636Z,64.41
2019-02-23T23:08:58.784Z,64.53
2019-02-23T23:12:06.202Z,65.13
2019-02-23T23:15:13.465Z,67.02
2019-02-23T23:18:20.823Z,66.74
2019-02-23T23:21:28.711Z,66.22
2019-02-23T23:24:36.413Z,66.11
2019-02-23T23:27:49.368Z,68.21
2019-02-23T23:30:53.450Z,68.48
2019-02-23T23:34:00.955Z,69.11
2019-02-23T23:37:08.388Z,69.17
2019-02-23T23:40:15.536Z,69.76
2019-02-23T23:43:22.690Z,70.45
2019-02-23T23:46:29.839Z,70.29
2019-02-23T23:49:37.308Z,70.11
2019-02-23T23:52:45.038Z,71.15
2019-02-23T23:55:52.934Z,70.86
2019-02-23T23:59:02.605Z,72.07
